Hovedside
METAR-TAF:

METAR-TAF

Lufthavner :

Tromsø lufthavn. Langnes

Tromsø, Norge

breddegrad: 69-41N, lengdegrad: 018-55E, høyde over havet: 1 m

Gjeldene værobservasjon

Denne rapporten ble laget for 21 minutter siden, klokken 06:50 UTC
Vind 3 kt fra Vest-sørvest
Temperatur 9°C
Luftfuktighet 87%
Trykk 1009 hPa
Sikt 10 km eller mer
Få skyer i en høyde av 600 ft
Spredte skyer i en høyde av 3000 ft
Brutte skyer i en høyde av 8400 ft

METAR: ENTC 140650Z 25003KT 9999 FEW006 SCT030 BKN084 09/07 Q1009 NOSIG RMK WIND 2600FT 29003KT

Tid: 09:11 (07:11 UTC)

Varsel

Varsel gyldig fra 14. klokken 06 UTC til 15. klokken 06 UTC
Vind 5 kt fra Sørvest
Sikt 10 km eller mer
Få skyer i en høyde av 1000 ft
Brutte skyer i en høyde av 3000 ft
lette regnbyger

TAF: ENTC 1406/1506 22005KT 9999 -SHRA FEW010 BKN030

Værobservasjoner og værvarsel for over 4000 flyplasser (METAR- og TAF-rapporter).

Tilgjengelige stasjoner er representert av de røde og gule prikkene på kartet.

Hold musepekeren over prikken for å se navnet på stasjonen.

Klikk så for å se værobservasjoner og -varsler.

For å forandre kartet kan du klikke på den grønne knappen med svart kryss for å zoome inn, på den grønne knappen med strek for å zoome ut, eller på de grønne pilene for å se tilstøtende kart.


METAR-TAF: